sensor_id;sensor_type;location;lat;lon;timestamp;pressure;altitude;pressure_sealevel;temperature;humidity
41515;BME280;27247;48.020;16.720;2023-07-02T00:02:39;99014.31;;;18.79;87.35
41515;BME280;27247;48.020;16.720;2023-07-02T00:06:50;99018.66;;;18.80;86.64
41515;BME280;27247;48.020;16.720;2023-07-02T00:11:00;99019.41;;;18.75;86.36
41515;BME280;27247;48.020;16.720;2023-07-02T00:15:10;99003.06;;;18.70;86.29
41515;BME280;27247;48.020;16.720;2023-07-02T00:19:21;99011.75;;;18.72;85.88
41515;BME280;27247;48.020;16.720;2023-07-02T00:23:31;99016.41;;;18.60;86.15
41515;BME280;27247;48.020;16.720;2023-07-02T00:27:41;99012.88;;;18.60;86.88
41515;BME280;27247;48.020;16.720;2023-07-02T00:31:52;99022.47;;;18.50;88.01
41515;BME280;27247;48.020;16.720;2023-07-02T00:36:03;99022.72;;;18.49;89.40
41515;BME280;27247;48.020;16.720;2023-07-02T00:40:13;99022.00;;;18.54;88.59
41515;BME280;27247;48.020;16.720;2023-07-02T00:44:24;99015.50;;;18.55;86.75
41515;BME280;27247;48.020;16.720;2023-07-02T00:48:34;99012.66;;;18.44;86.98
41515;BME280;27247;48.020;16.720;2023-07-02T00:52:44;99006.00;;;18.35;87.62
41515;BME280;27247;48.020;16.720;2023-07-02T00:56:55;99017.91;;;18.34;87.91
41515;BME280;27247;48.020;16.720;2023-07-02T01:01:06;99014.63;;;18.32;89.58
41515;BME280;27247;48.020;16.720;2023-07-02T01:05:17;99020.78;;;18.28;90.92
41515;BME280;27247;48.020;16.720;2023-07-02T01:09:31;99026.16;;;18.11;92.17
41515;BME280;27247;48.020;16.720;2023-07-02T01:13:41;99019.75;;;18.00;93.04
41515;BME280;27247;48.020;16.720;2023-07-02T01:17:54;99018.19;;;17.88;93.60
41515;BME280;27247;48.020;16.720;2023-07-02T01:22:04;99016.13;;;17.78;95.09
41515;BME280;27247;48.020;16.720;2023-07-02T01:26:15;99008.75;;;17.73;95.46
41515;BME280;27247;48.020;16.720;2023-07-02T01:30:25;99017.44;;;17.75;94.97
41515;BME280;27247;48.020;16.720;2023-07-02T01:34:36;99018.66;;;17.84;93.99
41515;BME280;27247;48.020;16.720;2023-07-02T01:38:46;99020.47;;;17.79;93.20
41515;BME280;27247;48.020;16.720;2023-07-02T01:42:57;99011.09;;;17.70;93.78
41515;BME280;27247;48.020;16.720;2023-07-02T01:47:07;99016.59;;;17.63;93.63
41515;BME280;27247;48.020;16.720;2023-07-02T01:51:17;99012.00;;;17.64;93.63
41515;BME280;27247;48.020;16.720;2023-07-02T01:55:28;99008.72;;;17.62;93.74
41515;BME280;27247;48.020;16.720;2023-07-02T01:59:39;99010.50;;;17.56;95.63
41515;BME280;27247;48.020;16.720;2023-07-02T02:03:49;99012.41;;;17.55;96.73
41515;BME280;27247;48.020;16.720;2023-07-02T02:07:59;99009.47;;;17.57;96.40
41515;BME280;27247;48.020;16.720;2023-07-02T02:12:10;99008.09;;;17.43;95.83
41515;BME280;27247;48.020;16.720;2023-07-02T02:16:20;99002.88;;;17.53;93.10
41515;BME280;27247;48.020;16.720;2023-07-02T02:20:30;99000.09;;;17.48;93.86
41515;BME280;27247;48.020;16.720;2023-07-02T02:24:41;99006.91;;;17.50;94.36
41515;BME280;27247;48.020;16.720;2023-07-02T02:28:52;99008.69;;;17.45;95.44
41515;BME280;27247;48.020;16.720;2023-07-02T02:33:02;99005.28;;;17.38;96.09
41515;BME280;27247;48.020;16.720;2023-07-02T02:37:13;99007.31;;;17.31;96.24
41515;BME280;27247;48.020;16.720;2023-07-02T02:41:23;99010.63;;;17.21;96.51
41515;BME280;27247;48.020;16.720;2023-07-02T02:45:33;99004.31;;;17.15;95.74
41515;BME280;27247;48.020;16.720;2023-07-02T02:49:44;99005.75;;;17.06;95.94
41515;BME280;27247;48.020;16.720;2023-07-02T02:53:54;99010.56;;;17.04;95.57
41515;BME280;27247;48.020;16.720;2023-07-02T02:58:04;99008.69;;;16.93;95.72
41515;BME280;27247;48.020;16.720;2023-07-02T03:02:15;99007.41;;;16.84;95.88
41515;BME280;27247;48.020;16.720;2023-07-02T03:06:25;99016.47;;;16.78;95.97
41515;BME280;27247;48.020;16.720;2023-07-02T03:10:36;99018.22;;;16.72;96.25
41515;BME280;27247;48.020;16.720;2023-07-02T03:14:46;99022.91;;;16.65;95.50
41515;BME280;27247;48.020;16.720;2023-07-02T03:18:57;99020.34;;;16.70;95.47
41515;BME280;27247;48.020;16.720;2023-07-02T03:23:09;99030.31;;;16.70;95.56
41515;BME280;27247;48.020;16.720;2023-07-02T03:27:19;99024.75;;;16.65;96.14
41515;BME280;27247;48.020;16.720;2023-07-02T03:31:29;99029.00;;;16.72;95.78
41515;BME280;27247;48.020;16.720;2023-07-02T03:35:40;99029.47;;;16.69;96.02
41515;BME280;27247;48.020;16.720;2023-07-02T03:39:50;99028.78;;;16.85;96.59
41515;BME280;27247;48.020;16.720;2023-07-02T03:44:01;99037.91;;;16.96;95.92
41515;BME280;27247;48.020;16.720;2023-07-02T03:48:11;99027.00;;;17.03;95.23
41515;BME280;27247;48.020;16.720;2023-07-02T03:52:21;99040.00;;;17.06;94.33
41515;BME280;27247;48.020;16.720;2023-07-02T03:56:32;99040.34;;;17.09;95.21
41515;BME280;27247;48.020;16.720;2023-07-02T04:00:42;99043.41;;;17.13;95.14
41515;BME280;27247;48.020;16.720;2023-07-02T04:04:54;99038.44;;;17.21;95.84
41515;BME280;27247;48.020;16.720;2023-07-02T04:09:04;99052.28;;;17.37;95.86
41515;BME280;27247;48.020;16.720;2023-07-02T04:13:14;99053.41;;;17.52;95.65
41515;BME280;27247;48.020;16.720;2023-07-02T04:17:25;99049.59;;;17.65;96.13
41515;BME280;27247;48.020;16.720;2023-07-02T04:21:35;99060.28;;;17.83;96.40
41515;BME280;27247;48.020;16.720;2023-07-02T04:25:46;99068.28;;;18.07;96.50
41515;BME280;27247;48.020;16.720;2023-07-02T04:29:56;99078.16;;;18.30;95.42
41515;BME280;27247;48.020;16.720;2023-07-02T04:34:06;99067.09;;;18.48;94.56
41515;BME280;27247;48.020;16.720;2023-07-02T04:38:16;99079.59;;;18.66;93.84
41515;BME280;27247;48.020;16.720;2023-07-02T04:42:27;99080.91;;;18.80;92.81
41515;BME280;27247;48.020;16.720;2023-07-02T04:46:37;99086.47;;;18.90;92.28
41515;BME280;27247;48.020;16.720;2023-07-02T04:50:48;99082.09;;;19.06;91.79
41515;BME280;27247;48.020;16.720;2023-07-02T04:54:58;99084.34;;;19.31;89.51
41515;BME280;27247;48.020;16.720;2023-07-02T04:59:08;99082.88;;;19.62;87.74
41515;BME280;27247;48.020;16.720;2023-07-02T05:03:19;99089.38;;;19.83;86.32
41515;BME280;27247;48.020;16.720;2023-07-02T05:07:29;99090.97;;;20.05;84.91
41515;BME280;27247;48.020;16.720;2023-07-02T05:11:39;99094.34;;;20.18;84.07
41515;BME280;27247;48.020;16.720;2023-07-02T05:15:50;99105.81;;;20.25;84.18
41515;BME280;27247;48.020;16.720;2023-07-02T05:20:04;99109.44;;;20.35;84.88
41515;BME280;27247;48.020;16.720;2023-07-02T05:24:17;99110.41;;;20.46;83.63
41515;BME280;27247;48.020;16.720;2023-07-02T05:28:27;99112.91;;;20.53;83.60
41515;BME280;27247;48.020;16.720;2023-07-02T05:32:37;99124.19;;;20.71;84.70
41515;BME280;27247;48.020;16.720;2023-07-02T05:36:49;99124.94;;;20.94;84.24
41515;BME280;27247;48.020;16.720;2023-07-02T05:40:59;99130.72;;;21.08;82.71
41515;BME280;27247;48.020;16.720;2023-07-02T05:45:10;99129.53;;;21.25;83.46
41515;BME280;27247;48.020;16.720;2023-07-02T05:49:21;99132.28;;;21.30;82.09
41515;BME280;27247;48.020;16.720;2023-07-02T05:53:31;99148.03;;;21.28;81.72
41515;BME280;27247;48.020;16.720;2023-07-02T05:57:41;99150.72;;;21.23;82.72
41515;BME280;27247;48.020;16.720;2023-07-02T06:01:52;99149.25;;;21.16;83.07
41515;BME280;27247;48.020;16.720;2023-07-02T06:06:02;99157.94;;;21.13;82.44
41515;BME280;27247;48.020;16.720;2023-07-02T06:10:12;99167.19;;;21.12;82.74
41515;BME280;27247;48.020;16.720;2023-07-02T06:14:23;99171.66;;;21.28;84.38
41515;BME280;27247;48.020;16.720;2023-07-02T06:18:35;99175.03;;;21.45;83.61
41515;BME280;27247;48.020;16.720;2023-07-02T06:22:46;99177.56;;;21.62;83.94
41515;BME280;27247;48.020;16.720;2023-07-02T06:26:56;99189.66;;;21.81;82.76
41515;BME280;27247;48.020;16.720;2023-07-02T06:31:06;99196.22;;;21.85;82.89
41515;BME280;27247;48.020;16.720;2023-07-02T06:35:17;99193.19;;;21.82;82.92
41515;BME280;27247;48.020;16.720;2023-07-02T06:39:27;99208.66;;;21.76;82.72
41515;BME280;27247;48.020;16.720;2023-07-02T06:43:37;99198.84;;;21.70;82.65
41515;BME280;27247;48.020;16.720;2023-07-02T06:47:49;99213.97;;;21.56;83.28
41515;BME280;27247;48.020;16.720;2023-07-02T06:51:59;99212.09;;;21.56;84.76
41515;BME280;27247;48.020;16.720;2023-07-02T06:56:10;99202.91;;;21.67;84.18
41515;BME280;27247;48.020;16.720;2023-07-02T07:00:21;99219.09;;;21.89;85.30
41515;BME280;27247;48.020;16.720;2023-07-02T07:04:32;99205.53;;;21.99;81.95
41515;BME280;27247;48.020;16.720;2023-07-02T07:08:42;99199.63;;;22.08;82.25
41515;BME280;27247;48.020;16.720;2023-07-02T07:12:52;99206.72;;;22.19;81.82
41515;BME280;27247;48.020;16.720;2023-07-02T07:17:03;99199.97;;;22.37;79.96
41515;BME280;27247;48.020;16.720;2023-07-02T07:21:14;99197.28;;;22.47;79.04
41515;BME280;27247;48.020;16.720;2023-07-02T07:25:24;99203.94;;;22.91;77.15
41515;BME280;27247;48.020;16.720;2023-07-02T07:29:34;99203.63;;;22.83;76.55
41515;BME280;27247;48.020;16.720;2023-07-02T07:33:45;99195.69;;;22.76;78.49
41515;BME280;27247;48.020;16.720;2023-07-02T07:37:55;99203.94;;;23.02;78.54
41515;BME280;27247;48.020;16.720;2023-07-02T07:42:06;99214.28;;;23.30;78.27
41515;BME280;27247;48.020;16.720;2023-07-02T07:46:16;99207.19;;;23.24;76.55
41515;BME280;27247;48.020;16.720;2023-07-02T07:50:27;99208.56;;;23.27;76.75
41515;BME280;27247;48.020;16.720;2023-07-02T07:54:38;99207.19;;;23.39;77.85
41515;BME280;27247;48.020;16.720;2023-07-02T07:58:48;99201.66;;;23.80;75.21
41515;BME280;27247;48.020;16.720;2023-07-02T08:02:58;99201.84;;;24.14;74.58
41515;BME280;27247;48.020;16.720;2023-07-02T08:07:10;99207.28;;;24.19;72.63
41515;BME280;27247;48.020;16.720;2023-07-02T08:11:21;99204.28;;;24.15;72.66
41515;BME280;27247;48.020;16.720;2023-07-02T08:15:31;99208.59;;;24.37;72.32
41515;BME280;27247;48.020;16.720;2023-07-02T08:19:41;99206.97;;;24.75;71.92
41515;BME280;27247;48.020;16.720;2023-07-02T08:23:52;99204.47;;;24.83;70.52
41515;BME280;27247;48.020;16.720;2023-07-02T08:28:02;99204.91;;;25.06;70.96
41515;BME280;27247;48.020;16.720;2023-07-02T08:32:13;99202.19;;;25.01;69.00
41515;BME280;27247;48.020;16.720;2023-07-02T08:36:23;99209.22;;;25.12;69.38
41515;BME280;27247;48.020;16.720;2023-07-02T08:40:34;99196.16;;;25.04;69.70
41515;BME280;27247;48.020;16.720;2023-07-02T08:44:47;99183.75;;;25.17;69.25
41515;BME280;27247;48.020;16.720;2023-07-02T08:48:59;99181.41;;;25.58;69.39
41515;BME280;27247;48.020;16.720;2023-07-02T08:53:09;99195.63;;;25.89;66.34
41515;BME280;27247;48.020;16.720;2023-07-02T08:57:19;99186.81;;;26.16;65.22
41515;BME280;27247;48.020;16.720;2023-07-02T09:01:31;99195.97;;;26.49;64.47
41515;BME280;27247;48.020;16.720;2023-07-02T09:05:51;99211.16;;;26.60;63.49
41515;BME280;27247;48.020;16.720;2023-07-02T09:10:02;99201.97;;;26.88;63.24
41515;BME280;27247;48.020;16.720;2023-07-02T09:14:25;99200.25;;;26.92;63.12
41515;BME280;27247;48.020;16.720;2023-07-02T09:18:36;99205.47;;;26.75;63.09
41515;BME280;27247;48.020;16.720;2023-07-02T09:22:53;99190.94;;;26.75;62.31
41515;BME280;27247;48.020;16.720;2023-07-02T09:27:05;99192.13;;;27.06;61.00
41515;BME280;27247;48.020;16.720;2023-07-02T09:31:15;99193.50;;;27.22;62.00
41515;BME280;27247;48.020;16.720;2023-07-02T09:35:26;99188.16;;;27.45;62.74
41515;BME280;27247;48.020;16.720;2023-07-02T09:39:36;99201.97;;;27.40;61.78
41515;BME280;27247;48.020;16.720;2023-07-02T09:43:46;99202.16;;;27.29;61.41
41515;BME280;27247;48.020;16.720;2023-07-02T09:47:58;99201.34;;;27.29;61.28
41515;BME280;27247;48.020;16.720;2023-07-02T09:52:11;99201.94;;;27.26;60.97
41515;BME280;27247;48.020;16.720;2023-07-02T09:56:21;99207.31;;;27.17;61.53
41515;BME280;27247;48.020;16.720;2023-07-02T10:00:32;99207.63;;;27.16;60.21
41515;BME280;27247;48.020;16.720;2023-07-02T10:04:45;99212.16;;;27.07;61.99
41515;BME280;27247;48.020;16.720;2023-07-02T10:08:55;99218.56;;;26.97;61.68
41515;BME280;27247;48.020;16.720;2023-07-02T10:13:06;99219.47;;;26.73;61.07
41515;BME280;27247;48.020;16.720;2023-07-02T10:17:33;99214.44;;;26.62;61.28
41515;BME280;27247;48.020;16.720;2023-07-02T10:21:44;99213.25;;;26.68;61.92
41515;BME280;27247;48.020;16.720;2023-07-02T10:26:10;99213.53;;;27.04;60.99
41515;BME280;27247;48.020;16.720;2023-07-02T10:30:34;99206.13;;;27.04;58.98
41515;BME280;27247;48.020;16.720;2023-07-02T10:34:45;99212.56;;;26.76;62.58
41515;BME280;27247;48.020;16.720;2023-07-02T10:39:01;99220.28;;;26.36;60.87
41515;BME280;27247;48.020;16.720;2023-07-02T10:43:12;99221.97;;;26.32;62.19
41515;BME280;27247;48.020;16.720;2023-07-02T10:47:23;99220.44;;;26.21;64.29
41515;BME280;27247;48.020;16.720;2023-07-02T10:51:33;99222.94;;;26.60;63.52
41515;BME280;27247;48.020;16.720;2023-07-02T10:55:44;99219.16;;;26.94;62.82
41515;BME280;27247;48.020;16.720;2023-07-02T11:00:06;99208.13;;;26.99;62.10
41515;BME280;27247;48.020;16.720;2023-07-02T11:04:18;99205.00;;;27.24;60.43
41515;BME280;27247;48.020;16.720;2023-07-02T11:08:35;99212.44;;;27.38;60.74
41515;BME280;27247;48.020;16.720;2023-07-02T11:12:46;99204.78;;;26.46;61.75
41515;BME280;27247;48.020;16.720;2023-07-02T11:16:57;99207.31;;;26.98;62.41
41515;BME280;27247;48.020;16.720;2023-07-02T11:21:11;99215.53;;;26.98;62.63
41515;BME280;27247;48.020;16.720;2023-07-02T11:25:22;99208.66;;;27.01;61.79
41515;BME280;27247;48.020;16.720;2023-07-02T11:29:33;99208.34;;;27.21;62.33
41515;BME280;27247;48.020;16.720;2023-07-02T11:33:44;99213.06;;;27.34;61.80
41515;BME280;27247;48.020;16.720;2023-07-02T11:37:54;99222.72;;;27.78;60.17
41515;BME280;27247;48.020;16.720;2023-07-02T11:42:05;99231.53;;;27.61;59.60
41515;BME280;27247;48.020;16.720;2023-07-02T11:46:15;99223.53;;;27.79;60.56
41515;BME280;27247;48.020;16.720;2023-07-02T11:50:26;99226.06;;;27.75;58.36
41515;BME280;27247;48.020;16.720;2023-07-02T11:54:36;99222.00;;;28.00;58.79
41515;BME280;27247;48.020;16.720;2023-07-02T11:58:49;99223.66;;;28.28;57.13
41515;BME280;27247;48.020;16.720;2023-07-02T12:03:00;99231.97;;;27.82;57.72
41515;BME280;27247;48.020;16.720;2023-07-02T12:07:10;99226.50;;;28.10;59.97
41515;BME280;27247;48.020;16.720;2023-07-02T12:11:21;99227.19;;;27.88;58.94
41515;BME280;27247;48.020;16.720;2023-07-02T12:15:32;99225.91;;;27.53;57.64
41515;BME280;27247;48.020;16.720;2023-07-02T12:19:42;99225.66;;;27.35;58.97
41515;BME280;27247;48.020;16.720;2023-07-02T12:23:52;99240.44;;;27.02;59.22
41515;BME280;27247;48.020;16.720;2023-07-02T12:28:04;99216.06;;;26.82;60.01
41515;BME280;27247;48.020;16.720;2023-07-02T12:32:14;99209.97;;;27.22;60.93
41515;BME280;27247;48.020;16.720;2023-07-02T12:36:25;99219.28;;;27.54;56.50
41515;BME280;27247;48.020;16.720;2023-07-02T12:40:35;99226.56;;;28.05;57.37
41515;BME280;27247;48.020;16.720;2023-07-02T12:44:45;99215.41;;;28.42;55.02
41515;BME280;27247;48.020;16.720;2023-07-02T12:48:56;99216.88;;;28.62;54.17
41515;BME280;27247;48.020;16.720;2023-07-02T12:53:06;99220.34;;;28.68;54.73
41515;BME280;27247;48.020;16.720;2023-07-02T12:57:17;99229.88;;;28.34;54.01
41515;BME280;27247;48.020;16.720;2023-07-02T13:01:28;99209.47;;;28.08;55.05
41515;BME280;27247;48.020;16.720;2023-07-02T13:05:39;99219.34;;;27.81;55.44
41515;BME280;27247;48.020;16.720;2023-07-02T13:09:50;99220.63;;;27.56;56.31
41515;BME280;27247;48.020;16.720;2023-07-02T13:14:00;99216.00;;;27.38;56.98
41515;BME280;27247;48.020;16.720;2023-07-02T13:18:11;99221.38;;;27.29;57.46
41515;BME280;27247;48.020;16.720;2023-07-02T13:22:22;99223.06;;;27.58;57.12
41515;BME280;27247;48.020;16.720;2023-07-02T13:26:33;99219.19;;;27.59;57.67
41515;BME280;27247;48.020;16.720;2023-07-02T13:30:44;99214.03;;;27.25;57.29
41515;BME280;27247;48.020;16.720;2023-07-02T13:34:54;99221.25;;;27.21;58.18
41515;BME280;27247;48.020;16.720;2023-07-02T13:39:05;99216.47;;;27.26;57.47
41515;BME280;27247;48.020;16.720;2023-07-02T13:43:17;99218.00;;;27.19;57.71
41515;BME280;27247;48.020;16.720;2023-07-02T13:47:27;99221.16;;;27.26;58.35
41515;BME280;27247;48.020;16.720;2023-07-02T13:51:38;99210.53;;;27.38;57.79
41515;BME280;27247;48.020;16.720;2023-07-02T13:55:49;99211.16;;;27.49;56.86
41515;BME280;27247;48.020;16.720;2023-07-02T13:59:59;99218.47;;;27.53;56.93
41515;BME280;27247;48.020;16.720;2023-07-02T14:04:11;99227.00;;;27.52;55.71
41515;BME280;27247;48.020;16.720;2023-07-02T14:08:22;99224.16;;;27.43;56.15
41515;BME280;27247;48.020;16.720;2023-07-02T14:12:32;99228.81;;;27.43;57.17
41515;BME280;27247;48.020;16.720;2023-07-02T14:16:43;99224.38;;;27.47;57.04
41515;BME280;27247;48.020;16.720;2023-07-02T14:20:54;99232.91;;;27.45;55.82
41515;BME280;27247;48.020;16.720;2023-07-02T14:25:05;99232.22;;;27.21;56.11
41515;BME280;27247;48.020;16.720;2023-07-02T14:29:15;99236.06;;;27.01;56.32
41515;BME280;27247;48.020;16.720;2023-07-02T14:33:28;99241.84;;;26.62;56.26
41515;BME280;27247;48.020;16.720;2023-07-02T14:37:39;99237.31;;;26.52;56.68
41515;BME280;27247;48.020;16.720;2023-07-02T14:41:49;99250.13;;;26.57;57.08
41515;BME280;27247;48.020;16.720;2023-07-02T14:46:02;99254.00;;;26.32;56.82
41515;BME280;27247;48.020;16.720;2023-07-02T14:50:13;99252.63;;;26.11;57.22
41515;BME280;27247;48.020;16.720;2023-07-02T14:54:23;99243.16;;;25.98;57.69
41515;BME280;27247;48.020;16.720;2023-07-02T14:58:35;99238.38;;;25.85;57.24
41515;BME280;27247;48.020;16.720;2023-07-02T15:02:45;99242.66;;;25.67;58.41
41515;BME280;27247;48.020;16.720;2023-07-02T15:06:57;99243.22;;;25.35;58.27
41515;BME280;27247;48.020;16.720;2023-07-02T15:11:08;99229.53;;;25.01;58.66
41515;BME280;27247;48.020;16.720;2023-07-02T15:15:19;99239.63;;;24.95;58.85
41515;BME280;27247;48.020;16.720;2023-07-02T15:19:29;99243.06;;;24.77;59.03
41515;BME280;27247;48.020;16.720;2023-07-02T15:23:40;99243.00;;;24.82;58.95
41515;BME280;27247;48.020;16.720;2023-07-02T15:27:50;99243.09;;;24.72;58.74
41515;BME280;27247;48.020;16.720;2023-07-02T15:32:00;99255.38;;;24.74;57.87
41515;BME280;27247;48.020;16.720;2023-07-02T15:36:11;99248.19;;;24.83;57.45
41515;BME280;27247;48.020;16.720;2023-07-02T15:40:21;99247.97;;;24.75;57.11
41515;BME280;27247;48.020;16.720;2023-07-02T15:44:31;99251.84;;;24.69;57.65
41515;BME280;27247;48.020;16.720;2023-07-02T15:48:42;99263.38;;;24.61;57.79
41515;BME280;27247;48.020;16.720;2023-07-02T15:52:52;99248.41;;;24.48;57.62
41515;BME280;27247;48.020;16.720;2023-07-02T15:57:03;99254.66;;;24.54;58.53
41515;BME280;27247;48.020;16.720;2023-07-02T16:01:18;99247.88;;;24.46;56.79
41515;BME280;27247;48.020;16.720;2023-07-02T16:05:29;99245.22;;;24.31;57.71
41515;BME280;27247;48.020;16.720;2023-07-02T16:09:39;99258.59;;;24.32;59.19
41515;BME280;27247;48.020;16.720;2023-07-02T16:13:50;99248.22;;;24.34;58.83
41515;BME280;27247;48.020;16.720;2023-07-02T16:18:02;99253.16;;;24.17;59.61
41515;BME280;27247;48.020;16.720;2023-07-02T16:22:12;99252.66;;;24.10;59.68
41515;BME280;27247;48.020;16.720;2023-07-02T16:26:22;99257.06;;;23.96;60.33
41515;BME280;27247;48.020;16.720;2023-07-02T16:30:33;99264.97;;;23.87;60.20
41515;BME280;27247;48.020;16.720;2023-07-02T16:34:43;99266.63;;;23.83;61.30
41515;BME280;27247;48.020;16.720;2023-07-02T16:38:54;99273.19;;;23.72;61.42
41515;BME280;27247;48.020;16.720;2023-07-02T16:43:04;99268.56;;;23.67;61.45
41515;BME280;27247;48.020;16.720;2023-07-02T16:47:15;99270.47;;;23.67;61.66
41515;BME280;27247;48.020;16.720;2023-07-02T16:51:25;99272.66;;;23.54;61.43
41515;BME280;27247;48.020;16.720;2023-07-02T16:55:36;99278.63;;;23.51;61.61
41515;BME280;27247;48.020;16.720;2023-07-02T16:59:50;99281.09;;;23.53;61.42
41515;BME280;27247;48.020;16.720;2023-07-02T17:04:01;99277.00;;;23.50;61.62
41515;BME280;27247;48.020;16.720;2023-07-02T17:08:11;99273.72;;;23.48;61.75
41515;BME280;27247;48.020;16.720;2023-07-02T17:12:22;99286.28;;;23.39;61.87
41515;BME280;27247;48.020;16.720;2023-07-02T17:16:33;99292.81;;;23.38;62.12
41515;BME280;27247;48.020;16.720;2023-07-02T17:20:49;99304.28;;;23.30;62.35
41515;BME280;27247;48.020;16.720;2023-07-02T17:25:00;99311.34;;;23.26;63.03
41515;BME280;27247;48.020;16.720;2023-07-02T17:29:11;99308.63;;;23.11;62.79
41515;BME280;27247;48.020;16.720;2023-07-02T17:33:22;99312.44;;;23.05;63.86
41515;BME280;27247;48.020;16.720;2023-07-02T17:37:32;99306.69;;;23.01;63.50
41515;BME280;27247;48.020;16.720;2023-07-02T17:41:47;99312.41;;;22.95;62.86
41515;BME280;27247;48.020;16.720;2023-07-02T17:45:58;99314.81;;;22.86;63.85
41515;BME280;27247;48.020;16.720;2023-07-02T17:50:09;99315.34;;;22.83;63.89
41515;BME280;27247;48.020;16.720;2023-07-02T17:54:21;99311.19;;;22.70;64.57
41515;BME280;27247;48.020;16.720;2023-07-02T17:58:32;99307.88;;;22.58;64.71
41515;BME280;27247;48.020;16.720;2023-07-02T18:02:43;99315.22;;;22.52;64.91
41515;BME280;27247;48.020;16.720;2023-07-02T18:07:02;99320.34;;;22.44;64.99
41515;BME280;27247;48.020;16.720;2023-07-02T18:11:13;99324.66;;;22.35;65.39
41515;BME280;27247;48.020;16.720;2023-07-02T18:15:24;99324.09;;;22.27;66.32
41515;BME280;27247;48.020;16.720;2023-07-02T18:19:35;99329.47;;;22.17;66.12
41515;BME280;27247;48.020;16.720;2023-07-02T18:23:46;99338.16;;;22.09;66.58
41515;BME280;27247;48.020;16.720;2023-07-02T18:28:04;99333.69;;;21.98;67.53
41515;BME280;27247;48.020;16.720;2023-07-02T18:32:15;99337.97;;;21.89;67.98
41515;BME280;27247;48.020;16.720;2023-07-02T18:36:26;99340.88;;;21.77;68.59
41515;BME280;27247;48.020;16.720;2023-07-02T18:40:37;99343.25;;;21.68;69.43
41515;BME280;27247;48.020;16.720;2023-07-02T18:44:48;99343.97;;;21.59;69.87
41515;BME280;27247;48.020;16.720;2023-07-02T18:49:02;99355.19;;;21.35;70.60
41515;BME280;27247;48.020;16.720;2023-07-02T18:53:19;99354.84;;;21.27;71.25
41515;BME280;27247;48.020;16.720;2023-07-02T18:57:31;99356.66;;;21.21;71.53
41515;BME280;27247;48.020;16.720;2023-07-02T19:01:41;99366.09;;;21.14;71.59
41515;BME280;27247;48.020;16.720;2023-07-02T19:05:52;99370.41;;;21.10;72.43
41515;BME280;27247;48.020;16.720;2023-07-02T19:10:03;99373.78;;;20.95;73.03
41515;BME280;27247;48.020;16.720;2023-07-02T19:14:14;99375.31;;;20.86;73.66
41515;BME280;27247;48.020;16.720;2023-07-02T19:18:26;99385.50;;;20.79;73.93
41515;BME280;27247;48.020;16.720;2023-07-02T19:22:37;99392.97;;;20.66;74.80
41515;BME280;27247;48.020;16.720;2023-07-02T19:26:49;99405.41;;;20.62;75.07
41515;BME280;27247;48.020;16.720;2023-07-02T19:31:02;99411.78;;;20.51;75.76
41515;BME280;27247;48.020;16.720;2023-07-02T19:35:13;99411.69;;;20.46;76.00
41515;BME280;27247;48.020;16.720;2023-07-02T19:39:24;99413.03;;;20.44;76.22
41515;BME280;27247;48.020;16.720;2023-07-02T19:43:34;99424.03;;;20.54;75.84
41515;BME280;27247;48.020;16.720;2023-07-02T19:47:46;99430.53;;;20.53;76.13
41515;BME280;27247;48.020;16.720;2023-07-02T19:51:56;99434.25;;;20.47;76.40
41515;BME280;27247;48.020;16.720;2023-07-02T19:56:08;99436.53;;;20.38;76.59
41515;BME280;27247;48.020;16.720;2023-07-02T20:00:19;99443.03;;;20.37;76.40
41515;BME280;27247;48.020;16.720;2023-07-02T20:04:30;99441.47;;;20.24;76.86
41515;BME280;27247;48.020;16.720;2023-07-02T20:08:41;99438.69;;;20.19;77.17
41515;BME280;27247;48.020;16.720;2023-07-02T20:12:52;99450.69;;;20.23;76.74
41515;BME280;27247;48.020;16.720;2023-07-02T20:17:04;99449.72;;;20.13;76.54
41515;BME280;27247;48.020;16.720;2023-07-02T20:21:15;99455.88;;;20.08;76.64
41515;BME280;27247;48.020;16.720;2023-07-02T20:25:25;99455.47;;;19.99;76.77
41515;BME280;27247;48.020;16.720;2023-07-02T20:29:36;99458.91;;;19.95;77.16
41515;BME280;27247;48.020;16.720;2023-07-02T20:33:48;99461.28;;;19.91;77.29
41515;BME280;27247;48.020;16.720;2023-07-02T20:37:58;99466.53;;;19.81;77.94
41515;BME280;27247;48.020;16.720;2023-07-02T20:42:10;99470.34;;;19.68;78.72
41515;BME280;27247;48.020;16.720;2023-07-02T20:46:21;99473.94;;;19.57;78.92
41515;BME280;27247;48.020;16.720;2023-07-02T20:50:35;99467.13;;;19.55;79.04
41515;BME280;27247;48.020;16.720;2023-07-02T20:54:46;99472.78;;;19.53;79.28
41515;BME280;27247;48.020;16.720;2023-07-02T20:58:56;99473.88;;;19.40;79.66
41515;BME280;27247;48.020;16.720;2023-07-02T21:03:06;99481.66;;;19.37;79.91
41515;BME280;27247;48.020;16.720;2023-07-02T21:07:17;99485.47;;;19.24;80.31
41515;BME280;27247;48.020;16.720;2023-07-02T21:11:27;99494.84;;;19.05;81.33
41515;BME280;27247;48.020;16.720;2023-07-02T21:15:37;99485.78;;;18.99;81.56
41515;BME280;27247;48.020;16.720;2023-07-02T21:19:48;99482.13;;;19.05;80.90
41515;BME280;27247;48.020;16.720;2023-07-02T21:23:58;99493.06;;;19.10;80.69
41515;BME280;27247;48.020;16.720;2023-07-02T21:28:09;99500.00;;;19.18;80.27
41515;BME280;27247;48.020;16.720;2023-07-02T21:32:19;99495.63;;;19.17;80.09
41515;BME280;27247;48.020;16.720;2023-07-02T21:36:29;99503.31;;;19.08;80.32
41515;BME280;27247;48.020;16.720;2023-07-02T21:40:40;99502.00;;;19.11;80.08
41515;BME280;27247;48.020;16.720;2023-07-02T21:44:51;99502.00;;;19.11;80.26
41515;BME280;27247;48.020;16.720;2023-07-02T21:49:01;99504.84;;;19.04;80.64
41515;BME280;27247;48.020;16.720;2023-07-02T21:53:11;99504.19;;;18.74;82.20